Time;durP1;ratioP1;P1;durP2;ratioP2;P2;SDS_P1;SDS_P2;PMS_P1;PMS_P2;Temp;Humidity;BMP_temperature;BMP_pressure;BME280_temperature;BME280_humidity;BME280_pressure;Samples;Min_cycle;Max_cycle;Signal;HPM_P1;HPM_P2
2022/03/08 00:02:00;;;;;;;23.33;9.77;;;;;;;-0.55;84.32;101893.34;5002885;28;20053;-48
2022/03/08 00:04:27;;;;;;;25.20;10.60;;;;;;;-0.58;84.79;101897.41;4996428;28;20056;-52
2022/03/08 00:06:54;;;;;;;21.10;9.35;;;;;;;-0.65;84.84;101897.06;5002984;28;20041;-50
2022/03/08 00:09:21;;;;;;;21.33;8.68;;;;;;;-0.69;84.56;101892.59;5003129;28;20046;-50
2022/03/08 00:11:48;;;;;;;20.92;9.93;;;;;;;-0.74;84.95;101900.78;5000374;28;20053;-52
2022/03/08 00:14:15;;;;;;;15.40;7.78;;;;;;;-0.78;85.00;101889.56;4999891;28;20058;-53
2022/03/08 00:16:41;;;;;;;18.20;7.25;;;;;;;-0.81;85.48;101891.06;5000424;28;20046;-51
2022/03/08 00:19:10;;;;;;;19.52;7.97;;;;;;;-0.84;85.33;101894.31;5000480;28;20507;-48
2022/03/08 00:21:36;;;;;;;18.95;7.20;;;;;;;-0.83;85.73;101896.06;5001175;28;20546;-53
2022/03/08 00:24:03;;;;;;;17.20;7.70;;;;;;;-0.86;85.79;101900.09;5003752;28;20054;-49
2022/03/08 00:26:30;;;;;;;12.65;7.32;;;;;;;-0.87;85.97;101894.13;5006415;28;20529;-50
2022/03/08 00:28:57;;;;;;;12.63;6.50;;;;;;;-0.88;85.83;101889.84;5005497;28;20136;-51
2022/03/08 00:31:24;;;;;;;15.02;6.68;;;;;;;-0.88;85.95;101892.38;4999648;28;20075;-50
2022/03/08 00:33:50;;;;;;;16.60;7.28;;;;;;;-0.89;85.97;101895.72;5002055;28;20045;-50
2022/03/08 00:36:20;;;;;;;18.52;8.45;;;;;;;-0.90;86.64;101896.50;5005370;28;20050;-53
2022/03/08 00:38:46;;;;;;;18.40;6.82;;;;;;;-0.90;86.09;101893.09;4994577;28;20050;-50
2022/03/08 00:41:13;;;;;;;16.00;6.60;;;;;;;-0.90;86.98;101888.00;5003143;28;20049;-54
2022/03/08 00:43:39;;;;;;;15.23;6.65;;;;;;;-0.90;86.86;101893.09;4998761;28;20154;-53
2022/03/08 00:46:07;;;;;;;18.88;7.57;;;;;;;-0.92;86.97;101893.00;5002874;28;20050;-49
2022/03/08 00:48:34;;;;;;;15.75;7.18;;;;;;;-0.91;87.20;101892.22;5000081;28;20419;-51
2022/03/08 00:51:00;;;;;;;14.63;6.15;;;;;;;-0.91;87.38;101888.78;5001495;28;20121;-51
2022/03/08 00:53:28;;;;;;;20.25;7.45;;;;;;;-0.92;87.54;101887.91;5002498;28;20054;-50
2022/03/08 00:55:55;;;;;;;16.27;7.50;;;;;;;-0.93;87.10;101888.69;5000373;28;20062;-53
2022/03/08 00:58:26;;;;;;;14.75;6.43;;;;;;;-0.93;87.80;101887.81;4994779;28;20046;-54
2022/03/08 01:00:52;;;;;;;14.70;6.82;;;;;;;-0.92;87.81;101884.50;4998489;28;20081;-50
2022/03/08 01:03:19;;;;;;;13.85;6.28;;;;;;;-0.92;87.80;101880.28;5002156;28;20047;-50
2022/03/08 01:05:46;;;;;;;13.57;5.85;;;;;;;-0.93;87.61;101873.44;4998546;28;20053;-48
2022/03/08 01:08:13;;;;;;;17.48;6.78;;;;;;;-0.92;88.09;101877.72;4999054;28;20133;-49
2022/03/08 01:10:42;;;;;;;12.60;6.03;;;;;;;-0.93;88.22;101881.06;5000257;28;20093;-50
2022/03/08 01:13:08;;;;;;;17.10;7.22;;;;;;;-0.91;88.41;101891.34;4998608;28;20546;-48
2022/03/08 01:15:36;;;;;;;16.30;7.35;;;;;;;-0.91;88.95;101892.22;5004556;28;20411;-50
2022/03/08 01:18:03;;;;;;;15.80;6.43;;;;;;;-0.91;88.92;101897.28;4997828;28;20046;-49
2022/03/08 01:20:30;;;;;;;14.73;6.53;;;;;;;-0.90;88.88;101893.97;5002675;28;20483;-48
2022/03/08 01:22:57;;;;;;;20.15;8.20;;;;;;;-0.88;88.91;101882.19;5003309;28;20068;-49
2022/03/08 01:25:24;;;;;;;18.67;7.50;;;;;;;-0.85;89.17;101879.81;5004508;28;20078;-49
2022/03/08 01:27:53;;;;;;;14.77;6.85;;;;;;;-0.85;89.09;101892.56;5004316;28;20495;-51
2022/03/08 01:30:22;;;;;;;16.35;6.38;;;;;;;-0.85;88.74;101892.56;4998306;28;20045;-53
2022/03/08 01:32:49;;;;;;;14.18;6.85;;;;;;;-0.86;89.27;101885.69;5000343;28;20046;-49
2022/03/08 01:35:16;;;;;;;15.07;7.53;;;;;;;-0.85;89.08;101877.28;5003774;28;20053;-49
2022/03/08 01:37:43;;;;;;;16.33;6.53;;;;;;;-0.83;88.70;101869.72;5001248;28;20057;-48
2022/03/08 01:40:15;;;;;;;13.55;5.85;;;;;;;-0.82;89.00;101877.44;4999364;28;20484;-48
2022/03/08 01:42:42;;;;;;;12.30;5.50;;;;;;;-0.83;88.99;101880.78;4999798;28;20052;-50
2022/03/08 01:45:10;;;;;;;9.95;5.30;;;;;;;-0.82;88.66;101887.63;5002647;28;20050;-49
2022/03/08 01:47:37;;;;;;;12.73;6.10;;;;;;;-0.82;88.86;101871.47;4993444;28;20073;-51
2022/03/08 01:50:06;;;;;;;13.73;4.72;;;;;;;-0.83;88.88;101870.59;4999074;28;20458;-49
2022/03/08 01:52:34;;;;;;;11.60;5.18;;;;;;;-0.84;89.16;101868.84;5003805;28;20045;-51
2022/03/08 01:55:01;;;;;;;14.20;4.90;;;;;;;-0.83;89.28;101869.72;4999427;28;20511;-48
2022/03/08 01:57:28;;;;;;;13.55;5.13;;;;;;;-0.84;89.52;101868.84;5003446;28;20053;-49
2022/03/08 01:59:55;;;;;;;9.35;4.30;;;;;;;-0.82;89.22;101864.72;5000187;28;20090;-48
2022/03/08 02:02:24;;;;;;;9.55;4.38;;;;;;;-0.83;89.20;101862.09;5005600;28;20046;-50
2022/03/08 02:04:51;;;;;;;8.40;4.55;;;;;;;-0.83;89.26;101860.41;4999091;28;20948;-52
2022/03/08 02:07:18;;;;;;;9.00;4.00;;;;;;;-0.84;89.15;101856.13;5004242;28;20045;-48
2022/03/08 02:09:45;;;;;;;10.98;4.88;;;;;;;-0.83;89.01;101852.78;5001540;28;20054;-51
2022/03/08 02:12:12;;;;;;;8.30;3.75;;;;;;;-0.84;89.36;101853.56;4999114;28;20483;-48
2022/03/08 02:14:40;;;;;;;9.68;4.32;;;;;;;-0.85;89.14;101856.91;5001062;28;20049;-50
2022/03/08 02:17:07;;;;;;;10.93;4.60;;;;;;;-0.86;89.15;101860.25;4999065;28;20490;-51
2022/03/08 02:19:35;;;;;;;11.20;3.75;;;;;;;-0.86;89.21;101855.16;4996285;28;20050;-49
2022/03/08 02:22:03;;;;;;;9.15;3.85;;;;;;;-0.87;89.07;101855.94;4998560;28;20506;-49
2022/03/08 02:24:30;;;;;;;8.82;3.85;;;;;;;-0.88;89.35;101856.75;5000347;28;20050;-48
2022/03/08 02:26:56;;;;;;;8.27;3.53;;;;;;;-0.88;88.94;101861.81;4998953;28;20400;-52
2022/03/08 02:29:23;;;;;;;8.85;3.22;;;;;;;-0.88;89.22;101859.28;5003391;28;20404;-49
2022/03/08 02:31:49;;;;;;;5.43;2.78;;;;;;;-0.91;89.30;101861.66;4999855;28;20077;-49
2022/03/08 02:34:17;;;;;;;6.68;3.17;;;;;;;-0.92;89.54;101857.38;5003874;28;20537;-50
2022/03/08 02:36:58;;;;;;;8.70;3.40;;;;;;;-0.92;89.64;101865.00;4994645;28;20046;-51
2022/03/08 02:39:26;;;;;;;7.20;3.00;;;;;;;-0.93;89.48;101863.25;4995429;28;20562;-50
2022/03/08 02:41:53;;;;;;;8.23;3.50;;;;;;;-0.93;89.13;101857.28;4998522;28;20042;-49
2022/03/08 02:44:19;;;;;;;6.03;2.70;;;;;;;-0.94;89.35;101860.63;4999315;28;20071;-50
2022/03/08 02:46:46;;;;;;;7.63;3.50;;;;;;;-0.94;89.58;101865.72;4997902;28;20053;-53
2022/03/08 02:49:12;;;;;;;8.05;3.25;;;;;;;-0.96;89.45;101868.16;5004386;28;20502;-49
2022/03/08 02:51:39;;;;;;;6.55;2.90;;;;;;;-0.98;89.33;101859.56;5004546;28;20053;-52
2022/03/08 02:54:06;;;;;;;9.25;3.25;;;;;;;-0.97;89.47;101866.41;5003486;28;20100;-52
2022/03/08 02:56:34;;;;;;;7.82;4.10;;;;;;;-0.96;89.48;101857.97;5004439;28;20141;-51
2022/03/08 02:59:01;;;;;;;6.93;3.25;;;;;;;-0.96;89.33;101868.16;5003706;28;20057;-49
2022/03/08 03:01:27;;;;;;;8.13;3.78;;;;;;;-0.97;89.59;101871.50;5002474;28;20504;-50
2022/03/08 03:03:54;;;;;;;7.55;3.25;;;;;;;-0.96;89.42;101865.63;5002807;28;20050;-49
2022/03/08 03:06:21;;;;;;;7.93;3.40;;;;;;;-0.94;89.36;101863.16;5001529;28;20490;-51
2022/03/08 03:08:47;;;;;;;7.65;3.10;;;;;;;-0.95;89.19;101859.75;5006597;28;20071;-50
2022/03/08 03:11:14;;;;;;;7.55;3.38;;;;;;;-0.93;89.54;101859.81;5004824;28;20053;-51
2022/03/08 03:13:42;;;;;;;8.02;3.85;;;;;;;-0.92;89.04;101859.03;5002968;28;20054;-49
2022/03/08 03:16:08;;;;;;;8.52;3.95;;;;;;;-0.93;89.25;101860.69;4999740;28;20574;-49
2022/03/08 03:18:35;;;;;;;6.30;3.70;;;;;;;-0.92;89.30;101862.44;5004618;28;20515;-50
2022/03/08 03:21:02;;;;;;;8.07;3.55;;;;;;;-0.92;89.02;101859.91;5008066;28;20494;-49
2022/03/08 03:23:28;;;;;;;8.55;3.85;;;;;;;-0.91;89.04;101860.78;5002929;28;20065;-48
2022/03/08 03:25:55;;;;;;;8.45;3.75;;;;;;;-0.91;89.21;101860.78;5004889;28;20053;-51
2022/03/08 03:28:22;;;;;;;6.80;3.30;;;;;;;-0.92;89.03;101857.38;5000203;28;20050;-52
2022/03/08 03:30:50;;;;;;;7.88;4.03;;;;;;;-0.92;89.12;101859.91;5001695;28;20179;-54
2022/03/08 03:33:16;;;;;;;10.32;5.07;;;;;;;-0.92;89.11;101866.66;5000564;28;20101;-49
2022/03/08 03:35:43;;;;;;;8.45;4.45;;;;;;;-0.93;88.93;101865.78;5001619;28;20053;-49
2022/03/08 03:38:10;;;;;;;9.40;3.92;;;;;;;-0.93;89.04;101864.91;5006142;28;20045;-53
2022/03/08 03:40:36;;;;;;;9.15;3.70;;;;;;;-0.92;88.78;101874.31;5003288;28;20085;-52
2022/03/08 03:43:03;;;;;;;9.48;3.67;;;;;;;-0.93;88.83;101878.53;5004972;28;20050;-51
2022/03/08 03:45:30;;;;;;;8.35;4.13;;;;;;;-0.94;89.03;101876.75;5002467;28;20049;-49
2022/03/08 03:47:58;;;;;;;7.97;4.07;;;;;;;-0.94;88.99;101869.13;5001617;28;20152;-48
2022/03/08 03:50:25;;;;;;;7.32;3.88;;;;;;;-0.93;88.89;101865.78;5003852;28;20088;-53
2022/03/08 03:52:52;;;;;;;8.05;3.75;;;;;;;-0.93;88.48;101873.44;5001159;28;20066;-49
2022/03/08 03:55:19;;;;;;;7.68;3.42;;;;;;;-0.94;88.43;101870.78;5003170;28;20092;-52
2022/03/08 03:57:46;;;;;;;7.22;2.83;;;;;;;-0.94;88.49;101861.50;5003496;28;20076;-51
2022/03/08 04:00:15;;;;;;;6.70;2.72;;;;;;;-0.94;88.49;101865.72;5001106;28;20472;-52
2022/03/08 04:02:42;;;;;;;6.45;2.75;;;;;;;-0.96;88.33;101869.03;5003749;28;20042;-51
2022/03/08 04:05:12;;;;;;;7.20;3.15;;;;;;;-0.96;88.62;101860.53;5004859;28;20135;-51
2022/03/08 04:07:39;;;;;;;8.07;3.22;;;;;;;-0.97;88.32;101862.19;5000528;28;20096;-52
2022/03/08 04:10:08;;;;;;;6.72;3.15;;;;;;;-0.96;88.47;101860.53;5000309;28;20050;-50
2022/03/08 04:12:35;;;;;;;5.72;3.15;;;;;;;-0.94;88.40;101869.13;4999424;28;20490;-52
2022/03/08 04:15:02;;;;;;;9.20;3.28;;;;;;;-0.94;88.15;101870.78;5002343;28;20066;-50
2022/03/08 04:17:28;;;;;;;5.55;2.80;;;;;;;-0.94;88.36;101871.69;5006302;28;20498;-52
2022/03/08 04:19:55;;;;;;;8.85;2.92;;;;;;;-0.94;88.37;101874.22;5001855;28;20129;-50
2022/03/08 04:22:23;;;;;;;6.30;3.42;;;;;;;-0.95;88.27;101877.56;5003418;28;20046;-51
2022/03/08 04:24:50;;;;;;;4.93;2.60;;;;;;;-0.94;88.14;101876.75;5001032;28;20139;-48
2022/03/08 04:27:17;;;;;;;8.07;3.05;;;;;;;-0.92;88.24;101879.41;5005884;28;20042;-53
2022/03/08 04:29:44;;;;;;;10.80;3.15;;;;;;;-0.92;88.17;101870.09;5002705;28;20137;-50
2022/03/08 04:32:10;;;;;;;5.90;3.13;;;;;;;-0.91;87.96;101876.94;5002003;28;20392;-49
2022/03/08 04:34:37;;;;;;;5.38;2.70;;;;;;;-0.90;87.61;101876.13;5003799;28;20050;-49
2022/03/08 04:37:04;;;;;;;6.60;2.85;;;;;;;-0.90;87.65;101882.91;5001586;28;20511;-52
2022/03/08 04:39:32;;;;;;;8.52;3.80;;;;;;;-0.93;87.87;101873.44;5002292;28;20881;-49
2022/03/08 04:41:58;;;;;;;6.28;3.10;;;;;;;-0.92;87.78;101875.19;5005335;28;21284;-51
2022/03/08 04:44:25;;;;;;;7.70;3.38;;;;;;;-0.91;87.74;101876.94;5002723;28;20053;-52
2022/03/08 04:46:52;;;;;;;6.60;2.67;;;;;;;-0.90;87.54;101876.13;5000876;28;20053;-52
2022/03/08 04:49:19;;;;;;;6.07;2.92;;;;;;;-0.91;87.17;101871.84;5004679;28;20111;-49
2022/03/08 04:51:46;;;;;;;6.63;3.10;;;;;;;-0.91;87.33;101864.22;4995200;28;20065;-52
2022/03/08 04:54:12;;;;;;;6.60;3.10;;;;;;;-0.92;87.11;101875.19;4998630;28;20053;-49
2022/03/08 04:56:40;;;;;;;7.47;3.25;;;;;;;-0.93;86.91;101873.44;5002339;28;20053;-49
2022/03/08 04:59:07;;;;;;;7.70;2.80;;;;;;;-0.93;86.72;101868.34;4999800;28;20534;-48
2022/03/08 05:01:33;;;;;;;7.22;3.65;;;;;;;-0.91;87.07;101871.84;5002775;28;20049;-49
2022/03/08 05:04:00;;;;;;;8.85;3.30;;;;;;;-0.91;86.77;101869.31;5000326;28;20060;-50
2022/03/08 05:06:30;;;;;;;7.97;3.30;;;;;;;-0.91;87.01;101864.22;5004239;28;20141;-50
2022/03/08 05:08:56;;;;;;;7.20;3.20;;;;;;;-0.89;86.92;101879.56;5000696;28;20060;-51
2022/03/08 05:11:24;;;;;;;6.82;3.45;;;;;;;-0.90;86.77;101876.13;5003931;28;20058;-51
2022/03/08 05:13:52;;;;;;;11.70;3.80;;;;;;;-0.91;86.72;101871.84;4994652;28;20054;-49
2022/03/08 05:16:19;;;;;;;8.13;3.28;;;;;;;-0.89;86.87;101877.91;4999830;28;20411;-48
2022/03/08 05:18:45;;;;;;;6.07;2.80;;;;;;;-0.87;87.22;101877.97;5004379;28;20046;-50
2022/03/08 05:21:11;;;;;;;8.68;3.53;;;;;;;-0.86;87.17;101883.16;5002428;28;20483;-49
2022/03/08 05:23:38;;;;;;;7.60;3.97;;;;;;;-0.85;86.75;101887.47;4998554;28;20065;-49
2022/03/08 05:26:05;;;;;;;7.07;4.38;;;;;;;-0.82;86.77;101887.63;5001236;28;20077;-49
2022/03/08 05:28:31;;;;;;;6.32;3.92;;;;;;;-0.81;86.54;101894.47;5004858;28;20129;-49
2022/03/08 05:30:59;;;;;;;8.88;4.40;;;;;;;-0.82;87.10;101892.72;5001230;28;20056;-48
2022/03/08 05:33:26;;;;;;;9.20;4.32;;;;;;;-0.80;87.07;101900.44;5000766;28;20057;-50
2022/03/08 05:35:52;;;;;;;7.68;3.40;;;;;;;-0.80;86.62;101896.22;4997617;28;20084;-48
2022/03/08 05:38:19;;;;;;;11.15;3.83;;;;;;;-0.78;86.73;101906.50;5001467;28;20392;-52
2022/03/08 05:40:45;;;;;;;10.10;4.10;;;;;;;-0.79;86.91;101910.72;5001669;28;20080;-49
2022/03/08 05:43:12;;;;;;;10.98;4.70;;;;;;;-0.77;86.85;101910.78;5001274;28;20050;-51
2022/03/08 05:45:39;;;;;;;7.35;3.72;;;;;;;-0.77;86.74;101910.78;5000755;28;20046;-49
2022/03/08 05:48:07;;;;;;;8.65;3.45;;;;;;;-0.76;86.85;101918.53;5002897;28;20046;-48
2022/03/08 05:50:33;;;;;;;8.55;3.72;;;;;;;-0.74;86.87;101921.16;5001456;28;20057;-51
2022/03/08 05:53:00;;;;;;;10.20;4.45;;;;;;;-0.70;87.07;101918.84;4998946;28;20759;-52
2022/03/08 05:55:26;;;;;;;9.35;3.88;;;;;;;-0.67;86.75;101924.13;5001685;28;20053;-49
2022/03/08 05:57:53;;;;;;;8.88;4.03;;;;;;;-0.64;86.85;101923.41;4996193;28;20061;-48
2022/03/08 06:00:19;;;;;;;6.88;3.53;;;;;;;-0.63;86.85;101928.59;5002303;28;20049;-53
2022/03/08 06:02:47;;;;;;;11.98;5.57;;;;;;;-0.59;86.78;101933.84;5004044;28;20045;-49
2022/03/08 06:05:15;;;;;;;10.20;5.30;;;;;;;-0.56;86.82;101929.81;4999040;28;20446;-54
2022/03/08 06:07:42;;;;;;;15.32;6.75;;;;;;;-0.51;87.21;101932.63;5000359;28;20471;-55
2022/03/08 06:10:10;;;;;;;11.23;5.22;;;;;;;-0.48;87.12;101925.16;5002203;28;22505;-51
2022/03/08 06:12:37;;;;;;;15.52;5.78;;;;;;;-0.44;87.22;101927.97;4993763;28;20053;-51
2022/03/08 06:15:05;;;;;;;12.45;6.65;;;;;;;-0.40;87.16;101937.53;5000483;28;20050;-48
2022/03/08 06:17:32;;;;;;;15.23;7.07;;;;;;;-0.36;86.92;101933.47;4999903;28;20058;-49
2022/03/08 06:19:58;;;;;;;13.65;6.82;;;;;;;-0.32;86.83;101931.19;5005182;28;20049;-50
2022/03/08 06:22:26;;;;;;;16.80;7.03;;;;;;;-0.26;86.89;101930.63;4996215;28;20498;-50
2022/03/08 06:24:53;;;;;;;18.15;8.00;;;;;;;-0.21;87.01;101936.84;5004948;28;20050;-50
2022/03/08 06:27:19;;;;;;;17.00;7.30;;;;;;;-0.15;87.25;101932.09;5003545;28;20050;-48
2022/03/08 06:29:47;;;;;;;16.80;6.40;;;;;;;-0.09;86.86;101928.97;5004413;28;20407;-49
2022/03/08 06:32:13;;;;;;;13.05;6.40;;;;;;;-0.02;86.82;101923.41;5002929;28;20401;-49
2022/03/08 06:34:40;;;;;;;17.83;7.28;;;;;;;0.07;87.00;101933.25;5006672;28;20045;-51
2022/03/08 06:37:06;;;;;;;17.75;7.90;;;;;;;0.18;87.31;101932.13;5005180;28;20077;-51
2022/03/08 06:39:34;;;;;;;17.70;7.90;;;;;;;0.29;87.51;101929.34;5000112;28;20050;-48
2022/03/08 06:42:01;;;;;;;11.95;6.55;;;;;;;0.42;87.47;101923.19;5008627;28;20049;-50
2022/03/08 06:44:28;;;;;;;13.98;6.18;;;;;;;0.54;87.41;101903.44;5004855;28;20052;-50
2022/03/08 06:46:54;;;;;;;11.35;5.72;;;;;;;0.69;87.44;101907.56;5006725;28;20058;-48
2022/03/08 06:49:21;;;;;;;11.52;5.32;;;;;;;0.84;87.56;101909.19;5000006;28;20422;-49
2022/03/08 06:51:48;;;;;;;15.85;6.35;;;;;;;1.02;87.36;101913.44;5004744;28;20499;-50
2022/03/08 06:54:16;;;;;;;14.80;5.55;;;;;;;1.22;87.41;101908.53;5004105;28;20051;-53
2022/03/08 06:56:44;;;;;;;13.35;5.25;;;;;;;1.43;87.38;101907.78;5001380;28;20491;-54
2022/03/08 06:59:11;;;;;;;10.48;4.80;;;;;;;1.64;86.33;101913.94;5001642;28;20042;-51
2022/03/08 07:01:38;;;;;;;14.73;5.88;;;;;;;1.81;86.29;101923.25;4998904;28;20101;-57
2022/03/08 07:04:05;;;;;;;10.77;4.88;;;;;;;2.03;86.48;101913.97;4979097;28;20054;-61
2022/03/08 07:06:33;;;;;;;10.40;5.00;;;;;;;2.22;86.34;101914.00;5002817;28;20049;-59
2022/03/08 07:09:00;;;;;;;12.13;5.30;;;;;;;2.41;85.37;101919.13;5004585;28;20287;-59
2022/03/08 07:11:27;;;;;;;12.43;5.93;;;;;;;2.60;85.49;101913.13;4999310;28;20136;-60
2022/03/08 07:13:58;;;;;;;12.20;5.57;;;;;;;2.80;84.70;101913.97;5002881;28;20683;-64
2022/03/08 07:16:24;;;;;;;10.07;5.22;;;;;;;3.01;84.13;101919.09;5006783;28;20141;-58
2022/03/08 07:18:51;;;;;;;9.10;4.95;;;;;;;3.22;83.61;101921.69;5002129;28;20484;-59
2022/03/08 07:21:18;;;;;;;10.75;5.88;;;;;;;3.40;83.43;101919.84;5000961;28;20054;-59
2022/03/08 07:23:45;;;;;;;12.57;5.45;;;;;;;3.55;81.60;101920.44;5001609;28;20096;-59
2022/03/08 07:26:12;;;;;;;9.43;5.85;;;;;;;3.72;81.63;101919.41;5006025;28;20128;-55
2022/03/08 07:28:39;;;;;;;12.20;5.80;;;;;;;3.88;80.15;101925.13;5000855;28;20042;-58
2022/03/08 07:31:07;;;;;;;10.93;5.47;;;;;;;4.02;79.94;101924.81;4998699;28;20538;-59
2022/03/08 07:33:34;;;;;;;11.15;5.35;;;;;;;4.18;78.75;101926.28;5003725;28;20038;-60
2022/03/08 07:36:03;;;;;;;10.02;5.40;;;;;;;4.37;78.44;101923.56;5004258;28;20535;-61
2022/03/08 07:38:30;;;;;;;11.93;5.70;;;;;;;4.57;77.78;101931.06;5003959;28;20538;-62
2022/03/08 07:40:57;;;;;;;11.70;4.93;;;;;;;4.80;76.86;101925.06;4994541;28;20109;-61
2022/03/08 07:43:25;;;;;;;9.75;5.90;;;;;;;4.97;75.92;101913.63;5004413;28;20494;-65
2022/03/08 07:45:52;;;;;;;9.70;5.32;;;;;;;5.18;75.48;101913.47;5004570;28;20121;-58
2022/03/08 07:48:20;;;;;;;11.27;5.13;;;;;;;5.39;74.82;101909.03;4999500;28;20065;-57
2022/03/08 07:50:46;;;;;;;10.85;5.50;;;;;;;5.62;74.10;101914.88;4998134;28;20549;-57
2022/03/08 07:53:13;;;;;;;10.88;4.95;;;;;;;5.82;73.00;101899.19;4998627;28;20454;-55
2022/03/08 07:55:39;;;;;;;8.70;4.55;;;;;;;6.02;72.42;101908.38;5006649;28;20052;-52
2022/03/08 07:58:11;;;;;;;7.25;4.30;;;;;;;6.25;71.40;101902.19;5005082;28;20046;-52
2022/03/08 08:00:38;;;;;;;11.32;5.53;;;;;;;6.51;70.84;101912.34;4998766;28;20088;-52
2022/03/08 08:03:07;;;;;;;10.43;5.32;;;;;;;6.75;69.79;101918.13;5003601;28;20049;-55
2022/03/08 08:05:35;;;;;;;13.88;6.32;;;;;;;6.96;68.97;101922.97;4999621;28;20050;-54
2022/03/08 08:08:02;;;;;;;11.45;5.65;;;;;;;7.19;67.89;101919.25;4997841;28;20096;-56
2022/03/08 08:10:28;;;;;;;15.25;5.35;;;;;;;7.42;67.16;101922.41;4994352;28;20046;-55
2022/03/08 08:12:55;;;;;;;13.10;6.07;;;;;;;7.70;66.85;101933.34;5001426;28;20041;-54
2022/03/08 08:15:22;;;;;;;11.32;5.40;;;;;;;7.98;65.95;101920.22;5000666;28;20073;-58
2022/03/08 08:17:48;;;;;;;9.18;5.00;;;;;;;8.24;65.17;101919.03;5004391;28;20057;-56
2022/03/08 08:20:15;;;;;;;11.18;6.60;;;;;;;8.53;63.32;101916.19;4997650;28;20046;-59
2022/03/08 08:22:43;;;;;;;10.88;6.05;;;;;;;8.84;61.51;101918.50;5000249;28;20136;-59
2022/03/08 08:25:11;;;;;;;11.88;5.30;;;;;;;9.10;60.49;101918.94;4998464;28;20049;-59
2022/03/08 08:27:38;;;;;;;11.25;5.47;;;;;;;9.37;59.82;101918.53;5003922;28;20041;-58
2022/03/08 08:30:07;;;;;;;11.45;5.38;;;;;;;9.69;58.93;101924.16;5002014;28;20060;-59
2022/03/08 08:32:34;;;;;;;11.23;4.65;;;;;;;9.95;57.66;101913.31;5001356;28;20046;-57
2022/03/08 08:35:01;;;;;;;10.70;5.05;;;;;;;10.27;56.85;101908.53;4997545;28;20061;-56
2022/03/08 08:37:28;;;;;;;9.68;4.93;;;;;;;10.60;55.68;101908.94;4997177;28;20534;-57
2022/03/08 08:39:56;;;;;;;11.63;5.68;;;;;;;10.92;54.45;101905.75;4998824;28;20066;-53
2022/03/08 08:42:23;;;;;;;9.88;4.72;;;;;;;11.22;52.48;101903.44;4999355;28;20077;-53
2022/03/08 08:44:51;;;;;;;8.90;4.35;;;;;;;11.38;50.96;101901.81;4995824;28;20061;-52
2022/03/08 08:47:18;;;;;;;13.07;4.82;;;;;;;11.59;49.73;101895.91;5003795;28;20128;-53
2022/03/08 08:49:47;;;;;;;8.95;4.93;;;;;;;11.82;48.71;101888.25;5001239;28;20140;-52
2022/03/08 08:52:14;;;;;;;8.07;4.50;;;;;;;11.98;48.40;101875.38;5000643;28;20038;-58
2022/03/08 08:54:41;;;;;;;8.40;4.65;;;;;;;12.21;47.41;101877.16;4999236;28;20376;-57
2022/03/08 08:57:09;;;;;;;9.07;4.95;;;;;;;12.43;45.86;101872.88;5001261;28;20049;-56
2022/03/08 08:59:36;;;;;;;7.32;4.25;;;;;;;12.51;45.16;101872.06;5004230;28;20046;-50
2022/03/08 09:02:03;;;;;;;6.35;3.90;;;;;;;12.56;44.49;101870.34;4996588;28;20500;-57
2022/03/08 09:04:30;;;;;;;7.95;4.15;;;;;;;12.63;43.17;101869.47;4995898;28;20096;-58
2022/03/08 09:06:57;;;;;;;6.65;3.60;;;;;;;12.70;43.34;101866.88;5002938;28;20061;-59
2022/03/08 09:09:24;;;;;;;11.20;3.58;;;;;;;12.78;42.58;101865.16;4996276;28;20070;-57
2022/03/08 09:11:51;;;;;;;12.05;4.50;;;;;;;12.84;42.43;101855.59;4999064;28;20086;-60
2022/03/08 09:14:19;;;;;;;8.88;3.92;;;;;;;12.95;42.23;101847.78;5000346;28;20497;-53
2022/03/08 09:16:46;;;;;;;9.20;4.47;;;;;;;12.98;41.58;101846.94;5003782;28;20046;-53
2022/03/08 09:19:12;;;;;;;7.88;3.83;;;;;;;13.00;42.02;101835.66;4997971;28;20057;-58
2022/03/08 09:21:39;;;;;;;8.30;3.75;;;;;;;13.02;41.39;101835.66;4998082;28;20563;-56
2022/03/08 09:24:06;;;;;;;7.53;3.25;;;;;;;13.01;41.30;101827.00;4987137;28;20050;-56
2022/03/08 09:26:33;;;;;;;6.60;3.85;;;;;;;13.03;41.06;101819.19;4993878;28;20049;-59
2022/03/08 09:28:59;;;;;;;10.25;3.83;;;;;;;13.06;41.26;101820.06;4997739;28;20061;-60
2022/03/08 09:31:27;;;;;;;6.75;3.60;;;;;;;13.15;41.03;101814.81;4993470;28;20045;-56
2022/03/08 09:33:55;;;;;;;5.30;2.67;;;;;;;13.23;41.00;101812.25;4996515;28;20057;-47
2022/03/08 09:36:21;;;;;;;6.18;2.70;;;;;;;13.35;40.25;101813.94;4995589;28;20494;-52
2022/03/08 09:38:48;;;;;;;8.50;3.45;;;;;;;13.41;39.74;101813.91;4991599;28;20054;-56
2022/03/08 09:41:15;;;;;;;5.22;2.50;;;;;;;13.48;39.92;101805.22;4994144;28;20061;-55
2022/03/08 09:43:41;;;;;;;7.65;3.35;;;;;;;13.61;39.70;101799.13;4995514;28;20046;-58
2022/03/08 09:46:08;;;;;;;9.65;3.60;;;;;;;13.64;39.14;101799.09;4988115;28;20053;-58
2022/03/08 09:48:36;;;;;;;9.80;3.55;;;;;;;13.63;39.53;101807.78;4991947;28;20058;-55
2022/03/08 09:51:05;;;;;;;3.28;2.10;;;;;;;13.61;39.10;101804.31;4994025;28;20059;-51
2022/03/08 09:53:32;;;;;;;5.47;2.40;;;;;;;13.61;39.12;101809.53;4990616;28;20104;-60
2022/03/08 09:55:59;;;;;;;6.50;3.55;;;;;;;13.62;39.26;101805.19;4993666;28;20079;-59
2022/03/08 09:58:26;;;;;;;6.75;2.75;;;;;;;13.66;39.00;101807.78;4992957;28;20058;-54
2022/03/08 10:00:55;;;;;;;5.95;2.55;;;;;;;13.71;38.96;101803.41;4995177;28;20054;-58
2022/03/08 10:03:32;;;;;;;4.97;2.47;;;;;;;13.68;38.72;101808.63;4993605;28;20057;-54
2022/03/08 10:06:00;;;;;;;7.57;2.92;;;;;;;13.68;38.96;101803.44;4995457;28;20415;-59
2022/03/08 10:08:28;;;;;;;6.68;2.75;;;;;;;13.70;38.83;101806.88;4991149;28;20518;-48
2022/03/08 10:10:58;;;;;;;7.53;2.72;;;;;;;13.63;38.86;101806.91;4987647;28;20046;-49
2022/03/08 10:13:27;;;;;;;7.00;2.58;;;;;;;13.65;38.41;101813.84;4995984;28;20493;-50
2022/03/08 10:16:09;;;;;;;7.45;2.92;;;;;;;13.63;37.37;101810.41;4988006;28;20058;-47
2022/03/08 10:18:37;;;;;;;15.75;5.68;;;;;;;13.66;38.59;101817.31;4992559;28;20774;-51
2022/03/08 10:21:05;;;;;;;8.73;2.70;;;;;;;13.73;38.44;101819.91;4989267;28;20054;-58
2022/03/08 10:23:41;;;;;;;5.28;2.40;;;;;;;13.78;38.32;101818.13;4993910;28;20050;-55
2022/03/08 10:26:11;;;;;;;6.60;2.58;;;;;;;13.90;38.63;101818.06;4991628;28;20541;-56
2022/03/08 10:28:45;;;;;;;9.40;2.55;;;;;;;13.93;37.66;101816.34;4992633;28;20054;-52
2022/03/08 10:31:13;;;;;;;5.43;1.30;;;;;;;13.95;38.10;101814.59;4990679;28;20133;-52
2022/03/08 10:33:39;;;;;;;3.28;1.33;;;;;;;14.01;37.97;101819.75;4998627;28;20065;-57
2022/03/08 10:36:13;;;;;;;3.17;1.63;;;;;;;14.06;37.94;101815.41;4989009;28;20564;-58
2022/03/08 10:38:40;;;;;;;4.03;1.70;;;;;;;14.09;37.65;101815.41;4994828;28;20054;-60
2022/03/08 10:41:17;;;;;;;5.47;1.77;;;;;;;14.02;36.68;101813.66;4989927;28;20050;-59
2022/03/08 10:43:48;;;;;;;6.35;2.05;;;;;;;14.03;37.56;101818.00;4990079;28;20112;-60
2022/03/08 10:46:17;;;;;;;3.70;1.45;;;;;;;14.11;37.55;101822.34;4989625;28;20050;-60
2022/03/08 10:48:47;;;;;;;3.70;1.55;;;;;;;14.19;37.52;101814.47;4998167;28;20756;-61
2022/03/08 10:51:16;;;;;;;4.47;2.13;;;;;;;14.26;37.36;101818.75;4994398;28;20073;-60
2022/03/08 10:53:42;;;;;;;3.50;1.40;;;;;;;14.26;37.54;101805.72;4989284;28;20530;-60
2022/03/08 10:56:10;;;;;;;2.38;1.40;;;;;;;14.32;37.33;101815.25;4991650;28;20055;-61
2022/03/08 10:58:49;;;;;;;4.15;1.30;;;;;;;14.31;35.77;101813.53;4989550;28;20057;-61
2022/03/08 11:01:16;;;;;;;11.77;2.22;;;;;;;14.25;36.89;101817.03;4993154;28;20189;-62
2022/03/08 11:03:55;;;;;;;5.80;1.73;;;;;;;14.12;36.05;101808.44;4991272;28;20509;-61
2022/03/08 11:06:23;;;;;;;4.07;1.25;;;;;;;14.14;37.38;101816.25;4991698;28;20074;-61
2022/03/08 11:08:49;;;;;;;7.65;1.85;;;;;;;14.19;37.17;101810.13;4994101;28;20786;-60
2022/03/08 11:11:19;;;;;;;3.78;1.70;;;;;;;14.16;37.26;101799.72;4994583;28;20050;-59
2022/03/08 11:13:50;;;;;;;6.63;2.22;;;;;;;14.16;37.32;101801.44;4989026;28;20050;-58
2022/03/08 11:16:18;;;;;;;5.30;1.75;;;;;;;14.16;37.08;101799.72;4991013;28;20042;-59
2022/03/08 11:18:48;;;;;;;3.08;1.48;;;;;;;14.19;37.54;101804.03;4992158;28;20487;-53
2022/03/08 11:21:15;;;;;;;4.03;1.67;;;;;;;14.24;37.07;101794.44;4993756;28;20056;-57
2022/03/08 11:23:45;;;;;;;4.00;1.63;;;;;;;14.26;37.48;101800.50;4987717;28;20050;-57
2022/03/08 11:26:13;;;;;;;3.42;1.63;;;;;;;14.31;37.35;101797.88;4989004;28;20137;-58